Weather, Runways
& NOTAMs

CYYZ - Toronto-Lester B. Pearson International
CYYZ 220300Z 13003KT 15SM SKC 13/09 A3037 RMK SLP287
Suggested Runways: Departures: 06L, Arrivals: 05
CYOW - Ottawa Macdonald-Cartier International
CYOW 220300Z CCA 12005KT 15SM SCT250 08/01 A3040 RMK CI4 SLP298
Suggested Runway: 14
CYTZ - Billy Bishop Toronto City
CYTZ 220300Z AUTO 07006KT 9SM CLR 15/08 A3037 RMK SLP286
Suggested Runway: 08
CYXU - London International
CYXU 220300Z 08002KT 15SM SKC 07/05 A3036 RMK SLP287
Suggested Runway: 15
CYHM - John C. Munro Hamilton International
CYHM 220300Z 06003KT 15SM FEW240 10/05 A3036 RMK CI1 CI TR SLP285
Suggested Runway: 12
CYKF - Region of Waterloo International
CYKF 220300Z AUTO 00000KT 9SM CLR 05/04 A3037 RMK SLP290
Suggested Runway: 08
CYAM - Sault Ste. Marie
CYAM 220300Z 13007KT 100V170 20SM FEW120 BKN150 BKN230 BKN280 14/10 A3020 RMK AC2ACC3CI1CI1 ACC SW MOVG NE SLP230
Suggested Runway: 12
CYTR - Canadian Forces Base Trenton
CYTR 220300Z AUTO 36002KT 9SM CLR 05/04 A3039 RMK SLP293
Suggested Runway: 06
CYOO - Toronto/Oshawa Executive
CYOO 220300Z AUTO 36004KT 9SM CLR 08/04 A3037 RMK SLP289
Suggested Runway: 30

NOTAMs